sensor_id;sensor_type;location;lat;lon;timestamp;temperature;humidity
30244;DHT22;64022;53.652;9.792;2023-08-01T00:01:41;23.60;68.90
30244;DHT22;64022;53.652;9.792;2023-08-01T00:04:07;23.60;68.80
30244;DHT22;64022;53.652;9.792;2023-08-01T00:06:32;23.60;68.90
30244;DHT22;64022;53.652;9.792;2023-08-01T00:08:58;23.60;68.80
30244;DHT22;64022;53.652;9.792;2023-08-01T00:11:23;23.70;68.90
30244;DHT22;64022;53.652;9.792;2023-08-01T00:13:49;23.60;68.80
30244;DHT22;64022;53.652;9.792;2023-08-01T00:16:14;23.60;68.80
30244;DHT22;64022;53.652;9.792;2023-08-01T00:18:39;23.60;68.80
30244;DHT22;64022;53.652;9.792;2023-08-01T00:21:05;23.70;68.80
30244;DHT22;64022;53.652;9.792;2023-08-01T00:23:34;23.60;68.70
30244;DHT22;64022;53.652;9.792;2023-08-01T00:25:59;23.60;68.70
30244;DHT22;64022;53.652;9.792;2023-08-01T00:28:25;23.60;68.70
30244;DHT22;64022;53.652;9.792;2023-08-01T00:31:00;23.60;68.70
30244;DHT22;64022;53.652;9.792;2023-08-01T00:33:26;23.60;69.20
30244;DHT22;64022;53.652;9.792;2023-08-01T00:35:54;23.60;68.70
30244;DHT22;64022;53.652;9.792;2023-08-01T00:38:20;23.60;68.70
30244;DHT22;64022;53.652;9.792;2023-08-01T00:40:45;23.60;68.70
30244;DHT22;64022;53.652;9.792;2023-08-01T00:43:10;23.60;68.60
30244;DHT22;64022;53.652;9.792;2023-08-01T00:45:36;23.60;68.60
30244;DHT22;64022;53.652;9.792;2023-08-01T00:48:01;23.60;68.60
30244;DHT22;64022;53.652;9.792;2023-08-01T00:50:27;23.60;68.60
30244;DHT22;64022;53.652;9.792;2023-08-01T00:52:52;23.60;68.60
30244;DHT22;64022;53.652;9.792;2023-08-01T00:55:18;23.60;68.60
30244;DHT22;64022;53.652;9.792;2023-08-01T00:57:43;23.60;68.50
30244;DHT22;64022;53.652;9.792;2023-08-01T01:00:09;23.60;68.50
30244;DHT22;64022;53.652;9.792;2023-08-01T01:02:35;23.60;68.50
30244;DHT22;64022;53.652;9.792;2023-08-01T01:05:01;23.60;68.50
30244;DHT22;64022;53.652;9.792;2023-08-01T01:07:27;23.60;68.50
30244;DHT22;64022;53.652;9.792;2023-08-01T01:09:53;23.60;68.40
30244;DHT22;64022;53.652;9.792;2023-08-01T01:12:19;23.60;68.40
30244;DHT22;64022;53.652;9.792;2023-08-01T01:14:44;23.60;68.40
30244;DHT22;64022;53.652;9.792;2023-08-01T01:17:10;23.50;68.30
30244;DHT22;64022;53.652;9.792;2023-08-01T01:19:35;23.60;68.40
30244;DHT22;64022;53.652;9.792;2023-08-01T01:22:16;23.60;68.40
30244;DHT22;64022;53.652;9.792;2023-08-01T01:24:42;23.60;68.40
30244;DHT22;64022;53.652;9.792;2023-08-01T01:27:07;23.60;68.40
30244;DHT22;64022;53.652;9.792;2023-08-01T01:29:34;23.60;68.30
30244;DHT22;64022;53.652;9.792;2023-08-01T01:32:02;23.60;68.30
30244;DHT22;64022;53.652;9.792;2023-08-01T01:34:28;23.50;68.20
30244;DHT22;64022;53.652;9.792;2023-08-01T01:36:54;23.50;68.20
30244;DHT22;64022;53.652;9.792;2023-08-01T01:39:19;23.60;68.30
30244;DHT22;64022;53.652;9.792;2023-08-01T01:41:45;23.50;68.20
30244;DHT22;64022;53.652;9.792;2023-08-01T01:44:11;23.50;68.20
30244;DHT22;64022;53.652;9.792;2023-08-01T01:46:36;23.50;68.10
30244;DHT22;64022;53.652;9.792;2023-08-01T01:49:02;23.50;68.10
30244;DHT22;64022;53.652;9.792;2023-08-01T01:51:28;23.50;68.10
30244;DHT22;64022;53.652;9.792;2023-08-01T01:53:53;23.50;68.10
30244;DHT22;64022;53.652;9.792;2023-08-01T01:56:19;23.50;68.10
30244;DHT22;64022;53.652;9.792;2023-08-01T01:58:44;23.50;68.10
30244;DHT22;64022;53.652;9.792;2023-08-01T02:01:09;23.50;68.10
30244;DHT22;64022;53.652;9.792;2023-08-01T02:03:35;23.50;68.10
30244;DHT22;64022;53.652;9.792;2023-08-01T02:06:02;23.50;68.10
30244;DHT22;64022;53.652;9.792;2023-08-01T02:08:28;23.50;68.10
30244;DHT22;64022;53.652;9.792;2023-08-01T02:10:54;23.50;68.10
30244;DHT22;64022;53.652;9.792;2023-08-01T02:13:23;23.50;68.10
30244;DHT22;64022;53.652;9.792;2023-08-01T02:15:48;23.50;68.00
30244;DHT22;64022;53.652;9.792;2023-08-01T02:18:14;23.50;68.00
30244;DHT22;64022;53.652;9.792;2023-08-01T02:20:39;23.50;68.00
30244;DHT22;64022;53.652;9.792;2023-08-01T02:23:05;23.50;68.00
30244;DHT22;64022;53.652;9.792;2023-08-01T02:25:30;23.50;68.00
30244;DHT22;64022;53.652;9.792;2023-08-01T02:27:56;23.50;68.00
30244;DHT22;64022;53.652;9.792;2023-08-01T02:30:21;23.50;68.00
30244;DHT22;64022;53.652;9.792;2023-08-01T02:32:46;23.50;68.00
30244;DHT22;64022;53.652;9.792;2023-08-01T02:35:12;23.50;68.00
30244;DHT22;64022;53.652;9.792;2023-08-01T02:37:37;23.50;68.00
30244;DHT22;64022;53.652;9.792;2023-08-01T02:40:04;23.50;68.00
30244;DHT22;64022;53.652;9.792;2023-08-01T02:42:33;23.50;68.00
30244;DHT22;64022;53.652;9.792;2023-08-01T02:44:59;23.50;68.00
30244;DHT22;64022;53.652;9.792;2023-08-01T02:47:24;23.50;68.00
30244;DHT22;64022;53.652;9.792;2023-08-01T02:49:50;23.50;68.00
30244;DHT22;64022;53.652;9.792;2023-08-01T02:52:15;23.50;68.00
30244;DHT22;64022;53.652;9.792;2023-08-01T02:54:40;23.50;68.00
30244;DHT22;64022;53.652;9.792;2023-08-01T02:57:06;23.50;68.00
30244;DHT22;64022;53.652;9.792;2023-08-01T02:59:31;23.50;68.00
30244;DHT22;64022;53.652;9.792;2023-08-01T03:01:58;23.50;68.00
30244;DHT22;64022;53.652;9.792;2023-08-01T03:04:24;23.50;68.00
30244;DHT22;64022;53.652;9.792;2023-08-01T03:06:50;23.50;68.00
30244;DHT22;64022;53.652;9.792;2023-08-01T03:09:15;23.50;68.00
30244;DHT22;64022;53.652;9.792;2023-08-01T03:11:41;23.50;68.00
30244;DHT22;64022;53.652;9.792;2023-08-01T03:14:06;23.50;67.90
30244;DHT22;64022;53.652;9.792;2023-08-01T03:16:32;23.50;67.90
30244;DHT22;64022;53.652;9.792;2023-08-01T03:18:57;23.50;68.00
30244;DHT22;64022;53.652;9.792;2023-08-01T03:21:25;23.50;68.00
30244;DHT22;64022;53.652;9.792;2023-08-01T03:23:51;23.50;67.90
30244;DHT22;64022;53.652;9.792;2023-08-01T03:26:17;23.50;67.90
30244;DHT22;64022;53.652;9.792;2023-08-01T03:28:43;23.50;67.90
30244;DHT22;64022;53.652;9.792;2023-08-01T03:31:09;23.50;67.90
30244;DHT22;64022;53.652;9.792;2023-08-01T03:33:34;23.50;67.90
30244;DHT22;64022;53.652;9.792;2023-08-01T03:36:00;23.50;67.90
30244;DHT22;64022;53.652;9.792;2023-08-01T03:38:25;23.50;67.90
30244;DHT22;64022;53.652;9.792;2023-08-01T03:40:50;23.50;67.90
30244;DHT22;64022;53.652;9.792;2023-08-01T03:43:16;23.50;67.90
30244;DHT22;64022;53.652;9.792;2023-08-01T03:45:41;23.50;67.90
30244;DHT22;64022;53.652;9.792;2023-08-01T03:48:07;23.50;67.90
30244;DHT22;64022;53.652;9.792;2023-08-01T03:50:32;23.50;67.90
30244;DHT22;64022;53.652;9.792;2023-08-01T03:52:58;23.60;67.90
30244;DHT22;64022;53.652;9.792;2023-08-01T03:55:23;23.50;67.80
30244;DHT22;64022;53.652;9.792;2023-08-01T03:57:48;23.50;67.80
30244;DHT22;64022;53.652;9.792;2023-08-01T04:00:14;23.50;67.80
30244;DHT22;64022;53.652;9.792;2023-08-01T04:02:42;23.50;67.80
30244;DHT22;64022;53.652;9.792;2023-08-01T04:05:08;23.50;67.80
30244;DHT22;64022;53.652;9.792;2023-08-01T04:07:37;23.50;67.80
30244;DHT22;64022;53.652;9.792;2023-08-01T04:10:03;23.50;67.80
30244;DHT22;64022;53.652;9.792;2023-08-01T04:12:29;23.50;67.80
30244;DHT22;64022;53.652;9.792;2023-08-01T04:14:55;23.50;67.80
30244;DHT22;64022;53.652;9.792;2023-08-01T04:17:20;23.50;67.80
30244;DHT22;64022;53.652;9.792;2023-08-01T04:19:46;23.50;67.80
30244;DHT22;64022;53.652;9.792;2023-08-01T04:22:11;23.50;67.70
30244;DHT22;64022;53.652;9.792;2023-08-01T04:24:36;23.50;67.70
30244;DHT22;64022;53.652;9.792;2023-08-01T04:27:02;23.50;67.80
30244;DHT22;64022;53.652;9.792;2023-08-01T04:29:27;23.50;67.70
30244;DHT22;64022;53.652;9.792;2023-08-01T04:31:53;23.50;67.70
30244;DHT22;64022;53.652;9.792;2023-08-01T04:34:18;23.50;67.70
30244;DHT22;64022;53.652;9.792;2023-08-01T04:36:44;23.50;67.70
30244;DHT22;64022;53.652;9.792;2023-08-01T04:39:09;23.50;67.70
30244;DHT22;64022;53.652;9.792;2023-08-01T04:41:35;23.50;67.70
30244;DHT22;64022;53.652;9.792;2023-08-01T04:44:00;23.50;67.70
30244;DHT22;64022;53.652;9.792;2023-08-01T04:46:25;23.50;67.70
30244;DHT22;64022;53.652;9.792;2023-08-01T04:48:51;23.50;67.70
30244;DHT22;64022;53.652;9.792;2023-08-01T04:51:16;23.50;67.70
30244;DHT22;64022;53.652;9.792;2023-08-01T04:53:42;23.50;67.70
30244;DHT22;64022;53.652;9.792;2023-08-01T04:56:07;23.50;67.70
30244;DHT22;64022;53.652;9.792;2023-08-01T04:58:32;23.50;67.70
30244;DHT22;64022;53.652;9.792;2023-08-01T05:00:58;23.50;67.70
30244;DHT22;64022;53.652;9.792;2023-08-01T05:03:23;23.50;67.60
30244;DHT22;64022;53.652;9.792;2023-08-01T05:05:49;23.50;67.60
30244;DHT22;64022;53.652;9.792;2023-08-01T05:08:14;23.50;67.60
30244;DHT22;64022;53.652;9.792;2023-08-01T05:10:40;23.50;67.60
30244;DHT22;64022;53.652;9.792;2023-08-01T05:13:05;23.50;67.60
30244;DHT22;64022;53.652;9.792;2023-08-01T05:15:30;23.50;67.60
30244;DHT22;64022;53.652;9.792;2023-08-01T05:17:56;23.50;67.60
30244;DHT22;64022;53.652;9.792;2023-08-01T05:20:21;23.50;67.60
30244;DHT22;64022;53.652;9.792;2023-08-01T05:22:47;23.50;67.50
30244;DHT22;64022;53.652;9.792;2023-08-01T05:25:12;23.50;67.50
30244;DHT22;64022;53.652;9.792;2023-08-01T05:27:38;23.50;67.50
30244;DHT22;64022;53.652;9.792;2023-08-01T05:30:03;23.50;67.50
30244;DHT22;64022;53.652;9.792;2023-08-01T05:32:29;23.50;67.50
30244;DHT22;64022;53.652;9.792;2023-08-01T05:34:54;23.50;67.50
30244;DHT22;64022;53.652;9.792;2023-08-01T05:37:19;23.50;67.50
30244;DHT22;64022;53.652;9.792;2023-08-01T05:39:45;23.50;67.50
30244;DHT22;64022;53.652;9.792;2023-08-01T05:42:10;23.50;67.50
30244;DHT22;64022;53.652;9.792;2023-08-01T05:44:36;23.50;67.50
30244;DHT22;64022;53.652;9.792;2023-08-01T05:47:01;23.50;67.50
30244;DHT22;64022;53.652;9.792;2023-08-01T05:49:27;23.50;67.40
30244;DHT22;64022;53.652;9.792;2023-08-01T05:51:54;23.50;67.40
30244;DHT22;64022;53.652;9.792;2023-08-01T05:54:20;23.50;67.40
30244;DHT22;64022;53.652;9.792;2023-08-01T05:56:45;23.50;67.40
30244;DHT22;64022;53.652;9.792;2023-08-01T05:59:11;23.50;67.40
30244;DHT22;64022;53.652;9.792;2023-08-01T06:01:36;23.50;67.40
30244;DHT22;64022;53.652;9.792;2023-08-01T06:04:02;23.50;67.40
30244;DHT22;64022;53.652;9.792;2023-08-01T06:06:27;23.50;67.40
30244;DHT22;64022;53.652;9.792;2023-08-01T06:08:53;23.50;67.40
30244;DHT22;64022;53.652;9.792;2023-08-01T06:11:18;23.50;67.40
30244;DHT22;64022;53.652;9.792;2023-08-01T06:13:43;23.50;67.30
30244;DHT22;64022;53.652;9.792;2023-08-01T06:16:09;23.50;67.40
30244;DHT22;64022;53.652;9.792;2023-08-01T06:18:35;23.50;67.30
30244;DHT22;64022;53.652;9.792;2023-08-01T06:21:00;23.50;67.40
30244;DHT22;64022;53.652;9.792;2023-08-01T06:23:28;23.50;67.30
30244;DHT22;64022;53.652;9.792;2023-08-01T06:25:54;23.50;67.30
30244;DHT22;64022;53.652;9.792;2023-08-01T06:28:19;23.50;67.30
30244;DHT22;64022;53.652;9.792;2023-08-01T06:30:45;23.50;67.30
30244;DHT22;64022;53.652;9.792;2023-08-01T06:33:11;23.50;67.30
30244;DHT22;64022;53.652;9.792;2023-08-01T06:35:36;23.50;67.20
30244;DHT22;64022;53.652;9.792;2023-08-01T06:38:02;23.50;67.20
30244;DHT22;64022;53.652;9.792;2023-08-01T06:40:27;23.50;67.20
30244;DHT22;64022;53.652;9.792;2023-08-01T06:42:52;23.50;67.20
30244;DHT22;64022;53.652;9.792;2023-08-01T06:45:18;23.50;67.20
30244;DHT22;64022;53.652;9.792;2023-08-01T06:47:43;23.50;67.20
30244;DHT22;64022;53.652;9.792;2023-08-01T06:50:09;23.50;67.20
30244;DHT22;64022;53.652;9.792;2023-08-01T06:52:35;23.50;67.20
30244;DHT22;64022;53.652;9.792;2023-08-01T06:55:00;23.50;67.20
30244;DHT22;64022;53.652;9.792;2023-08-01T06:57:26;23.50;67.20
30244;DHT22;64022;53.652;9.792;2023-08-01T06:59:52;23.50;67.20
30244;DHT22;64022;53.652;9.792;2023-08-01T07:02:18;23.50;67.20
30244;DHT22;64022;53.652;9.792;2023-08-01T07:04:44;23.50;67.20
30244;DHT22;64022;53.652;9.792;2023-08-01T07:07:09;23.60;67.30
30244;DHT22;64022;53.652;9.792;2023-08-01T07:09:35;23.50;67.20
30244;DHT22;64022;53.652;9.792;2023-08-01T07:12:00;23.60;67.30
30244;DHT22;64022;53.652;9.792;2023-08-01T07:14:26;23.60;67.20
30244;DHT22;64022;53.652;9.792;2023-08-01T07:16:51;23.60;67.20
30244;DHT22;64022;53.652;9.792;2023-08-01T07:19:16;23.60;67.20
30244;DHT22;64022;53.652;9.792;2023-08-01T07:21:42;23.60;67.10
30244;DHT22;64022;53.652;9.792;2023-08-01T07:24:10;23.60;67.10
30244;DHT22;64022;53.652;9.792;2023-08-01T07:26:35;23.60;67.10
30244;DHT22;64022;53.652;9.792;2023-08-01T07:29:01;23.60;67.10
30244;DHT22;64022;53.652;9.792;2023-08-01T07:31:26;23.60;67.10
30244;DHT22;64022;53.652;9.792;2023-08-01T07:33:52;23.60;67.00
30244;DHT22;64022;53.652;9.792;2023-08-01T07:36:17;23.60;66.80
30244;DHT22;64022;53.652;9.792;2023-08-01T07:38:42;23.60;66.70
30244;DHT22;64022;53.652;9.792;2023-08-01T07:41:08;23.60;66.60
30244;DHT22;64022;53.652;9.792;2023-08-01T07:43:33;23.60;66.50
30244;DHT22;64022;53.652;9.792;2023-08-01T07:45:59;23.60;66.60
30244;DHT22;64022;53.652;9.792;2023-08-01T07:48:25;23.50;66.50
30244;DHT22;64022;53.652;9.792;2023-08-01T07:50:50;23.60;66.60
30244;DHT22;64022;53.652;9.792;2023-08-01T07:53:16;23.60;66.60
30244;DHT22;64022;53.652;9.792;2023-08-01T07:55:41;23.50;66.60
30244;DHT22;64022;53.652;9.792;2023-08-01T07:58:07;23.60;66.70
30244;DHT22;64022;53.652;9.792;2023-08-01T08:00:34;23.60;66.80
30244;DHT22;64022;53.652;9.792;2023-08-01T08:02:59;23.60;66.70
30244;DHT22;64022;53.652;9.792;2023-08-01T08:05:25;23.60;66.70
30244;DHT22;64022;53.652;9.792;2023-08-01T08:07:50;23.60;66.60
30244;DHT22;64022;53.652;9.792;2023-08-01T08:10:15;23.60;66.60
30244;DHT22;64022;53.652;9.792;2023-08-01T08:12:41;23.60;66.50
30244;DHT22;64022;53.652;9.792;2023-08-01T08:15:06;23.60;66.50
30244;DHT22;64022;53.652;9.792;2023-08-01T08:17:32;23.70;66.60
30244;DHT22;64022;53.652;9.792;2023-08-01T08:19:57;23.70;66.60
30244;DHT22;64022;53.652;9.792;2023-08-01T08:22:23;23.70;66.60
30244;DHT22;64022;53.652;9.792;2023-08-01T08:24:48;23.70;66.60
30244;DHT22;64022;53.652;9.792;2023-08-01T08:27:14;23.70;66.60
30244;DHT22;64022;53.652;9.792;2023-08-01T08:29:39;23.70;66.50
30244;DHT22;64022;53.652;9.792;2023-08-01T08:32:05;23.80;66.50
30244;DHT22;64022;53.652;9.792;2023-08-01T08:34:30;23.70;66.40
30244;DHT22;64022;53.652;9.792;2023-08-01T08:36:56;23.80;66.50
30244;DHT22;64022;53.652;9.792;2023-08-01T08:39:21;23.70;66.40
30244;DHT22;64022;53.652;9.792;2023-08-01T08:41:48;23.70;66.30
30244;DHT22;64022;53.652;9.792;2023-08-01T08:44:14;23.80;66.30
30244;DHT22;64022;53.652;9.792;2023-08-01T08:46:41;23.80;66.30
30244;DHT22;64022;53.652;9.792;2023-08-01T08:49:07;23.70;66.20
30244;DHT22;64022;53.652;9.792;2023-08-01T08:51:33;23.70;66.10
30244;DHT22;64022;53.652;9.792;2023-08-01T08:53:59;23.70;65.90
30244;DHT22;64022;53.652;9.792;2023-08-01T08:56:26;23.70;65.90
30244;DHT22;64022;53.652;9.792;2023-08-01T08:58:53;23.70;65.80
30244;DHT22;64022;53.652;9.792;2023-08-01T09:01:19;23.70;65.70
30244;DHT22;64022;53.652;9.792;2023-08-01T09:03:44;23.60;65.50
30244;DHT22;64022;53.652;9.792;2023-08-01T09:08:39;23.50;65.50
30244;DHT22;64022;53.652;9.792;2023-08-01T09:11:05;23.50;65.40
30244;DHT22;64022;53.652;9.792;2023-08-01T09:13:30;23.50;65.40
30244;DHT22;64022;53.652;9.792;2023-08-01T09:15:56;23.50;65.50
30244;DHT22;64022;53.652;9.792;2023-08-01T09:18:21;23.40;65.40
30244;DHT22;64022;53.652;9.792;2023-08-01T09:20:47;23.40;65.50
30244;DHT22;64022;53.652;9.792;2023-08-01T09:23:13;23.40;65.50
30244;DHT22;64022;53.652;9.792;2023-08-01T09:25:39;23.40;65.60
30244;DHT22;64022;53.652;9.792;2023-08-01T09:31:00;23.40;66.10
30244;DHT22;64022;53.652;9.792;2023-08-01T09:33:25;23.40;66.30
30244;DHT22;64022;53.652;9.792;2023-08-01T09:35:51;23.40;66.40
30244;DHT22;64022;53.652;9.792;2023-08-01T09:38:16;23.40;66.50
30244;DHT22;64022;53.652;9.792;2023-08-01T09:40:43;23.50;66.60
30244;DHT22;64022;53.652;9.792;2023-08-01T09:43:09;23.50;66.70
30244;DHT22;64022;53.652;9.792;2023-08-01T09:45:35;23.50;66.70
30244;DHT22;64022;53.652;9.792;2023-08-01T09:48:01;23.60;66.80
30244;DHT22;64022;53.652;9.792;2023-08-01T09:50:26;23.60;66.80
30244;DHT22;64022;53.652;9.792;2023-08-01T09:52:52;23.60;66.80
30244;DHT22;64022;53.652;9.792;2023-08-01T09:55:33;23.60;66.80
30244;DHT22;64022;53.652;9.792;2023-08-01T09:57:59;23.60;66.90
30244;DHT22;64022;53.652;9.792;2023-08-01T10:00:25;23.60;66.90
30244;DHT22;64022;53.652;9.792;2023-08-01T10:02:50;23.70;67.00
30244;DHT22;64022;53.652;9.792;2023-08-01T10:05:18;23.70;67.00
30244;DHT22;64022;53.652;9.792;2023-08-01T10:07:44;23.70;67.00
30244;DHT22;64022;53.652;9.792;2023-08-01T10:10:10;23.70;67.00
30244;DHT22;64022;53.652;9.792;2023-08-01T10:12:37;23.70;67.00
30244;DHT22;64022;53.652;9.792;2023-08-01T10:15:03;23.80;67.10
30244;DHT22;64022;53.652;9.792;2023-08-01T10:17:29;23.70;67.00
30244;DHT22;64022;53.652;9.792;2023-08-01T10:19:55;23.70;67.00
30244;DHT22;64022;53.652;9.792;2023-08-01T10:22:21;23.70;67.00
30244;DHT22;64022;53.652;9.792;2023-08-01T10:24:47;23.80;67.00
30244;DHT22;64022;53.652;9.792;2023-08-01T10:27:14;23.80;67.00
30244;DHT22;64022;53.652;9.792;2023-08-01T10:29:39;23.80;67.00
30244;DHT22;64022;53.652;9.792;2023-08-01T10:32:08;23.80;67.00
30244;DHT22;64022;53.652;9.792;2023-08-01T10:34:34;23.80;67.00
30244;DHT22;64022;53.652;9.792;2023-08-01T10:37:00;23.80;67.00
30244;DHT22;64022;53.652;9.792;2023-08-01T10:39:27;23.80;66.90
30244;DHT22;64022;53.652;9.792;2023-08-01T10:41:59;23.90;67.00
30244;DHT22;64022;53.652;9.792;2023-08-01T10:44:25;23.80;66.90
30244;DHT22;64022;53.652;9.792;2023-08-01T10:49:17;23.90;66.90
30244;DHT22;64022;53.652;9.792;2023-08-01T10:51:43;23.80;66.80
30244;DHT22;64022;53.652;9.792;2023-08-01T10:54:21;23.90;66.80
30244;DHT22;64022;53.652;9.792;2023-08-01T10:56:48;23.90;66.80
30244;DHT22;64022;53.652;9.792;2023-08-01T10:59:14;23.90;66.80
30244;DHT22;64022;53.652;9.792;2023-08-01T11:01:50;23.90;66.80
30244;DHT22;64022;53.652;9.792;2023-08-01T11:04:16;23.90;66.80
30244;DHT22;64022;53.652;9.792;2023-08-01T11:06:43;23.90;66.70
30244;DHT22;64022;53.652;9.792;2023-08-01T11:09:37;23.90;66.70
30244;DHT22;64022;53.652;9.792;2023-08-01T11:12:00;23.90;66.70
30244;DHT22;64022;53.652;9.792;2023-08-01T11:14:26;23.90;66.60
30244;DHT22;64022;53.652;9.792;2023-08-01T11:16:53;23.90;66.60
30244;DHT22;64022;53.652;9.792;2023-08-01T11:19:20;23.90;66.60
30244;DHT22;64022;53.652;9.792;2023-08-01T11:21:46;23.90;66.60
30244;DHT22;64022;53.652;9.792;2023-08-01T11:24:12;23.90;66.50
30244;DHT22;64022;53.652;9.792;2023-08-01T11:26:41;23.90;66.50
30244;DHT22;64022;53.652;9.792;2023-08-01T11:29:07;23.90;66.50
30244;DHT22;64022;53.652;9.792;2023-08-01T11:31:33;23.90;66.50
30244;DHT22;64022;53.652;9.792;2023-08-01T11:33:59;23.90;66.40
30244;DHT22;64022;53.652;9.792;2023-08-01T11:36:28;23.90;66.40
30244;DHT22;64022;53.652;9.792;2023-08-01T11:38:54;23.90;66.40
30244;DHT22;64022;53.652;9.792;2023-08-01T11:41:21;23.90;66.30
30244;DHT22;64022;53.652;9.792;2023-08-01T11:43:46;23.90;66.30
30244;DHT22;64022;53.652;9.792;2023-08-01T11:46:12;23.90;66.30
30244;DHT22;64022;53.652;9.792;2023-08-01T11:48:37;23.90;66.30
30244;DHT22;64022;53.652;9.792;2023-08-01T11:51:03;23.90;66.30
30244;DHT22;64022;53.652;9.792;2023-08-01T11:53:29;23.90;66.80
30244;DHT22;64022;53.652;9.792;2023-08-01T11:55:55;23.90;66.20
30244;DHT22;64022;53.652;9.792;2023-08-01T11:58:32;23.90;66.20
30244;DHT22;64022;53.652;9.792;2023-08-01T12:01:10;23.90;66.20
30244;DHT22;64022;53.652;9.792;2023-08-01T12:03:52;23.90;66.20
30244;DHT22;64022;53.652;9.792;2023-08-01T12:06:19;23.90;66.10
30244;DHT22;64022;53.652;9.792;2023-08-01T12:08:45;23.90;66.10
30244;DHT22;64022;53.652;9.792;2023-08-01T12:11:21;23.90;66.60
30244;DHT22;64022;53.652;9.792;2023-08-01T12:13:47;23.90;66.10
30244;DHT22;64022;53.652;9.792;2023-08-01T12:16:13;23.90;66.10
30244;DHT22;64022;53.652;9.792;2023-08-01T12:18:42;24.00;66.10
30244;DHT22;64022;53.652;9.792;2023-08-01T12:21:08;23.90;66.00
30244;DHT22;64022;53.652;9.792;2023-08-01T12:23:35;24.00;66.10
30244;DHT22;64022;53.652;9.792;2023-08-01T12:26:01;23.90;66.00
30244;DHT22;64022;53.652;9.792;2023-08-01T12:28:26;24.00;66.00
30244;DHT22;64022;53.652;9.792;2023-08-01T12:30:51;24.00;66.00
30244;DHT22;64022;53.652;9.792;2023-08-01T12:33:17;24.00;66.00
30244;DHT22;64022;53.652;9.792;2023-08-01T12:35:42;23.90;65.90
30244;DHT22;64022;53.652;9.792;2023-08-01T12:38:08;24.00;65.90
30244;DHT22;64022;53.652;9.792;2023-08-01T12:40:33;24.00;65.90
30244;DHT22;64022;53.652;9.792;2023-08-01T12:42:59;24.00;65.80
30244;DHT22;64022;53.652;9.792;2023-08-01T12:45:25;23.90;65.80
30244;DHT22;64022;53.652;9.792;2023-08-01T12:47:50;23.90;65.80
30244;DHT22;64022;53.652;9.792;2023-08-01T12:50:16;23.90;65.80
30244;DHT22;64022;53.652;9.792;2023-08-01T12:52:41;23.90;65.70
30244;DHT22;64022;53.652;9.792;2023-08-01T12:55:07;23.90;65.70
30244;DHT22;64022;53.652;9.792;2023-08-01T12:57:33;23.90;65.70
30244;DHT22;64022;53.652;9.792;2023-08-01T12:59:58;24.00;65.70
30244;DHT22;64022;53.652;9.792;2023-08-01T13:02:24;23.90;65.70
30244;DHT22;64022;53.652;9.792;2023-08-01T13:04:49;24.00;65.70
30244;DHT22;64022;53.652;9.792;2023-08-01T13:07:15;24.00;65.70
30244;DHT22;64022;53.652;9.792;2023-08-01T13:09:40;24.00;65.70
30244;DHT22;64022;53.652;9.792;2023-08-01T13:12:06;24.00;65.70
30244;DHT22;64022;53.652;9.792;2023-08-01T13:14:31;24.00;65.70
30244;DHT22;64022;53.652;9.792;2023-08-01T13:16:57;24.00;65.70
30244;DHT22;64022;53.652;9.792;2023-08-01T13:19:24;24.00;65.70
30244;DHT22;64022;53.652;9.792;2023-08-01T13:21:50;24.00;65.70
30244;DHT22;64022;53.652;9.792;2023-08-01T13:24:15;24.00;65.70
30244;DHT22;64022;53.652;9.792;2023-08-01T13:26:40;24.00;65.70
30244;DHT22;64022;53.652;9.792;2023-08-01T13:29:06;24.00;65.70
30244;DHT22;64022;53.652;9.792;2023-08-01T13:31:31;24.00;65.70
30244;DHT22;64022;53.652;9.792;2023-08-01T13:33:57;24.00;65.70
30244;DHT22;64022;53.652;9.792;2023-08-01T13:36:23;24.00;65.70
30244;DHT22;64022;53.652;9.792;2023-08-01T13:38:49;24.00;65.70
30244;DHT22;64022;53.652;9.792;2023-08-01T13:41:14;24.00;65.70
30244;DHT22;64022;53.652;9.792;2023-08-01T13:43:40;24.10;65.80
30244;DHT22;64022;53.652;9.792;2023-08-01T13:46:12;24.00;65.70
30244;DHT22;64022;53.652;9.792;2023-08-01T13:48:38;24.00;65.70
30244;DHT22;64022;53.652;9.792;2023-08-01T13:51:04;24.00;65.70
30244;DHT22;64022;53.652;9.792;2023-08-01T13:53:29;24.00;65.60
30244;DHT22;64022;53.652;9.792;2023-08-01T13:55:54;24.00;65.60
30244;DHT22;64022;53.652;9.792;2023-08-01T13:58:20;24.10;65.60
30244;DHT22;64022;53.652;9.792;2023-08-01T14:00:46;24.00;65.60
30244;DHT22;64022;53.652;9.792;2023-08-01T14:03:11;24.10;65.30
30244;DHT22;64022;53.652;9.792;2023-08-01T14:05:36;24.00;64.80
30244;DHT22;64022;53.652;9.792;2023-08-01T14:08:02;23.90;64.50
30244;DHT22;64022;53.652;9.792;2023-08-01T14:10:27;23.90;64.40
30244;DHT22;64022;53.652;9.792;2023-08-01T14:12:53;23.70;64.20
30244;DHT22;64022;53.652;9.792;2023-08-01T14:15:18;23.70;64.30
30244;DHT22;64022;53.652;9.792;2023-08-01T14:17:44;23.60;64.30
30244;DHT22;64022;53.652;9.792;2023-08-01T14:20:10;23.60;64.50
30244;DHT22;64022;53.652;9.792;2023-08-01T14:22:35;23.50;64.60
30244;DHT22;64022;53.652;9.792;2023-08-01T14:25:01;23.50;64.70
30244;DHT22;64022;53.652;9.792;2023-08-01T14:27:26;23.50;64.90
30244;DHT22;64022;53.652;9.792;2023-08-01T14:29:51;23.50;65.00
30244;DHT22;64022;53.652;9.792;2023-08-01T14:32:18;23.60;65.20
30244;DHT22;64022;53.652;9.792;2023-08-01T14:34:43;23.50;65.20
30244;DHT22;64022;53.652;9.792;2023-08-01T14:37:09;23.50;65.20
30244;DHT22;64022;53.652;9.792;2023-08-01T14:39:34;23.50;65.30
30244;DHT22;64022;53.652;9.792;2023-08-01T14:41:59;23.50;65.40
30244;DHT22;64022;53.652;9.792;2023-08-01T14:44:25;23.50;65.50
30244;DHT22;64022;53.652;9.792;2023-08-01T14:46:50;23.50;65.70
30244;DHT22;64022;53.652;9.792;2023-08-01T14:49:16;23.60;65.80
30244;DHT22;64022;53.652;9.792;2023-08-01T14:51:41;23.50;65.70
30244;DHT22;64022;53.652;9.792;2023-08-01T14:54:07;23.50;65.90
30244;DHT22;64022;53.652;9.792;2023-08-01T14:56:33;23.50;66.00
30244;DHT22;64022;53.652;9.792;2023-08-01T14:58:58;23.60;66.30
30244;DHT22;64022;53.652;9.792;2023-08-01T15:01:24;23.60;66.40
30244;DHT22;64022;53.652;9.792;2023-08-01T15:03:49;23.60;66.40
30244;DHT22;64022;53.652;9.792;2023-08-01T15:06:15;23.70;66.50
30244;DHT22;64022;53.652;9.792;2023-08-01T15:08:40;23.70;66.60
30244;DHT22;64022;53.652;9.792;2023-08-01T15:11:07;23.70;66.60
30244;DHT22;64022;53.652;9.792;2023-08-01T15:13:32;23.70;66.60
30244;DHT22;64022;53.652;9.792;2023-08-01T15:15:58;23.70;66.60
30244;DHT22;64022;53.652;9.792;2023-08-01T15:18:24;23.70;66.50
30244;DHT22;64022;53.652;9.792;2023-08-01T15:20:50;23.70;66.50
30244;DHT22;64022;53.652;9.792;2023-08-01T15:23:15;23.70;66.40
30244;DHT22;64022;53.652;9.792;2023-08-01T15:25:40;23.70;66.30
30244;DHT22;64022;53.652;9.792;2023-08-01T15:28:06;23.70;66.20
30244;DHT22;64022;53.652;9.792;2023-08-01T15:30:31;23.60;66.10